Time;durP1;ratioP1;P1;durP2;ratioP2;P2;SDS_P1;SDS_P2;PMS_P1;PMS_P2;Temp;Humidity;BMP_temperature;BMP_pressure;BME280_temperature;BME280_humidity;BME280_pressure;Samples;Min_cycle;Max_cycle;Signal;HPM_P1;HPM_P2
2021/03/11 00:01:01;;;;;;;35.67;18.05;;;8.60;93.20;;;;;;6276629;22;20030;-75
2021/03/11 00:03:27;;;;;;;30.95;19.25;;;8.60;93.20;;;;;;6276417;22;20027;-75
2021/03/11 00:05:53;;;;;;;29.17;18.40;;;8.60;93.30;;;;;;6276095;22;20010;-74
2021/03/11 00:08:19;;;;;;;32.88;18.17;;;8.50;93.40;;;;;;6275924;22;20465;-74
2021/03/11 00:10:45;;;;;;;33.45;19.08;;;8.60;93.30;;;;;;6276533;22;20061;-74
2021/03/11 00:13:11;;;;;;;31.50;19.17;;;8.50;93.20;;;;;;6276185;22;20317;-74
2021/03/11 00:15:39;;;;;;;35.20;20.20;;;8.50;93.20;;;;;;6249417;22;20016;-75
2021/03/11 00:18:06;;;;;;;34.63;18.98;;;8.50;93.20;;;;;;6275863;22;20004;-74
2021/03/11 00:20:32;;;;;;;32.25;18.98;;;8.40;93.20;;;;;;6248993;22;20000;-74
2021/03/11 00:22:59;;;;;;;31.83;18.25;;;8.30;93.30;;;;;;6275928;22;20010;-74
2021/03/11 00:25:27;;;;;;;31.70;18.58;;;8.30;93.50;;;;;;6276142;22;20027;-74
2021/03/11 00:27:53;;;;;;;34.10;19.95;;;8.30;93.40;;;;;;6276288;22;20004;-74
2021/03/11 00:30:21;;;;;;;38.90;20.77;;;8.20;93.50;;;;;;6275900;22;19995;-74
2021/03/11 00:32:47;;;;;;;33.95;19.63;;;8.30;93.50;;;;;;6276522;22;20047;-75
2021/03/11 00:35:13;;;;;;;34.70;19.92;;;8.30;93.40;;;;;;6276590;22;20012;-74
2021/03/11 00:37:40;;;;;;;33.75;20.25;;;8.20;93.50;;;;;;6275896;22;20294;-74
2021/03/11 00:40:09;;;;;;;30.95;18.65;;;8.20;93.50;;;;;;6275474;22;20007;-75
2021/03/11 00:42:34;;;;;;;30.65;18.63;;;8.20;93.50;;;;;;6275877;22;20019;-74
2021/03/11 00:45:01;;;;;;;39.95;19.38;;;8.20;93.50;;;;;;6275966;22;20022;-74
2021/03/11 00:47:27;;;;;;;34.08;19.08;;;8.10;93.50;;;;;;6276277;22;20528;-74
2021/03/11 00:49:52;;;;;;;30.98;18.60;;;8.10;93.50;;;;;;6275856;22;20031;-74
2021/03/11 00:52:18;;;;;;;29.48;19.23;;;8.10;93.50;;;;;;6274245;22;20079;-74
2021/03/11 00:54:44;;;;;;;28.92;17.73;;;8.10;93.70;;;;;;6273822;22;20007;-74
2021/03/11 00:57:10;;;;;;;35.70;18.98;;;8.10;93.80;;;;;;6273910;22;20073;-75
2021/03/11 00:59:36;;;;;;;27.63;17.58;;;8.10;94.10;;;;;;6273301;22;20419;-74
2021/03/11 01:02:03;;;;;;;32.20;17.80;;;8.10;93.90;;;;;;6273697;22;20019;-74
2021/03/11 01:04:29;;;;;;;34.67;18.92;;;8.10;93.90;;;;;;6274010;22;20041;-74
2021/03/11 01:06:55;;;;;;;40.65;18.65;;;8.10;94.00;;;;;;6274434;22;20478;-74
2021/03/11 01:09:21;;;;;;;30.17;18.17;;;8.10;94.00;;;;;;6275821;22;20050;-75
2021/03/11 01:11:46;;;;;;;36.03;18.67;;;8.00;93.90;;;;;;6275739;22;19996;-75
2021/03/11 01:14:13;;;;;;;33.15;19.42;;;8.00;93.90;;;;;;6275438;22;20317;-75
2021/03/11 01:16:39;;;;;;;31.88;19.05;;;8.00;93.90;;;;;;6276003;22;20023;-74
2021/03/11 01:19:04;;;;;;;39.42;17.63;;;8.00;93.90;;;;;;6274394;22;20026;-74
2021/03/11 01:21:30;;;;;;;31.27;18.75;;;8.00;94.10;;;;;;6275083;22;20024;-74
2021/03/11 01:23:57;;;;;;;33.63;18.35;;;8.10;93.90;;;;;;6275100;22;20057;-74
2021/03/11 01:26:23;;;;;;;29.65;18.08;;;8.10;93.90;;;;;;6275103;22;20000;-74
2021/03/11 01:28:49;;;;;;;32.33;18.88;;;8.20;94.20;;;;;;6275148;22;20018;-75
2021/03/11 01:31:15;;;;;;;32.42;18.33;;;8.20;94.10;;;;;;6275093;22;20061;-74
2021/03/11 01:33:40;;;;;;;28.48;17.83;;;8.20;94.00;;;;;;6275290;22;20012;-74
2021/03/11 01:36:06;;;;;;;30.58;19.23;;;8.20;94.10;;;;;;6275039;22;20007;-74
2021/03/11 01:38:32;;;;;;;30.73;17.80;;;8.20;94.10;;;;;;6275519;22;19996;-74
2021/03/11 01:40:58;;;;;;;29.98;17.92;;;8.30;94.20;;;;;;6274893;22;20010;-74
2021/03/11 01:43:24;;;;;;;33.33;18.45;;;8.30;94.30;;;;;;6274728;22;20004;-74
2021/03/11 01:45:49;;;;;;;29.55;17.55;;;8.30;94.70;;;;;;6274789;22;20024;-74
2021/03/11 01:48:15;;;;;;;31.80;18.08;;;8.30;94.70;;;;;;6275042;22;20073;-74
2021/03/11 01:50:41;;;;;;;30.67;18.05;;;8.30;94.70;;;;;;6275184;22;20007;-74
2021/03/11 01:53:08;;;;;;;30.52;18.20;;;8.30;94.60;;;;;;6275338;22;20007;-75
2021/03/11 01:55:34;;;;;;;29.05;16.70;;;8.30;94.80;;;;;;6248173;22;20046;-75
2021/03/11 01:58:00;;;;;;;33.17;16.48;;;8.30;94.90;;;;;;6248271;22;20007;-74
2021/03/11 02:00:26;;;;;;;27.25;16.63;;;8.30;94.90;;;;;;6274618;22;20008;-74
2021/03/11 02:02:53;;;;;;;34.45;18.88;;;8.30;94.80;;;;;;6275064;22;20024;-74
2021/03/11 02:05:20;;;;;;;28.25;16.55;;;8.20;95.00;;;;;;6276663;22;20425;-75
2021/03/11 02:07:46;;;;;;;32.58;18.17;;;8.20;95.20;;;;;;6277573;22;20091;-74
2021/03/11 02:10:19;;;;;;;33.83;17.48;;;8.10;95.30;;;;;;6277006;22;20078;-75
2021/03/11 02:12:45;;;;;;;28.20;16.65;;;8.00;95.20;;;;;;6276834;22;20023;-74
2021/03/11 02:15:34;;;;;;;29.38;17.70;;;8.00;94.80;;;;;;6276453;22;20417;-74
2021/03/11 02:18:13;;;;;;;31.40;18.40;;;8.00;94.70;;;;;;6276099;22;20011;-74
2021/03/11 02:21:00;;;;;;;29.33;17.13;;;7.80;94.80;;;;;;6276928;22;20057;-74
2021/03/11 02:23:50;;;;;;;29.48;18.38;;;7.80;95.00;;;;;;6277464;22;20333;-74
2021/03/11 02:26:35;;;;;;;31.75;17.33;;;7.80;95.20;;;;;;6276385;22;20000;-75
2021/03/11 02:29:09;;;;;;;28.02;17.08;;;7.80;95.00;;;;;;6276654;22;19992;-74
2021/03/11 02:31:36;;;;;;;27.27;17.00;;;7.80;95.10;;;;;;6276596;22;20114;-76
2021/03/11 02:34:17;;;;;;;31.58;17.50;;;7.80;95.00;;;;;;6277266;22;20376;-74
2021/03/11 02:36:43;;;;;;;29.92;18.38;;;7.70;95.20;;;;;;6276900;22;20011;-75
2021/03/11 02:39:10;;;;;;;36.47;18.67;;;7.60;95.20;;;;;;6275494;22;20375;-73
2021/03/11 02:41:38;;;;;;;33.70;18.05;;;7.60;95.10;;;;;;6276703;22;20324;-74
2021/03/11 02:44:06;;;;;;;36.97;18.15;;;7.60;95.20;;;;;;6276754;22;20059;-74
2021/03/11 02:46:33;;;;;;;33.03;19.02;;;7.50;95.30;;;;;;6276846;22;20074;-74
2021/03/11 02:48:59;;;;;;;33.15;19.08;;;7.30;95.50;;;;;;6276520;22;20041;-74
2021/03/11 02:51:25;;;;;;;33.83;18.52;;;7.20;95.60;;;;;;6277044;22;20332;-74
2021/03/11 02:53:51;;;;;;;36.83;19.63;;;7.10;95.70;;;;;;6276654;22;20082;-74
2021/03/11 02:56:19;;;;;;;33.15;19.50;;;7.10;95.70;;;;;;6276330;22;20003;-75
2021/03/11 02:58:45;;;;;;;33.70;19.60;;;7.10;95.80;;;;;;6276456;22;20626;-74
2021/03/11 03:01:15;;;;;;;31.40;19.20;;;7.10;95.80;;;;;;6276334;22;20007;-74
2021/03/11 03:03:41;;;;;;;30.00;18.27;;;7.00;95.90;;;;;;6276730;22;20379;-75
2021/03/11 03:06:09;;;;;;;33.63;19.38;;;7.00;96.00;;;;;;6276826;22;20023;-74
2021/03/11 03:08:35;;;;;;;34.70;19.80;;;7.00;95.90;;;;;;6276804;22;20003;-74
2021/03/11 03:11:02;;;;;;;32.88;18.65;;;7.10;95.90;;;;;;6276083;22;20074;-75
2021/03/11 03:13:29;;;;;;;34.15;19.48;;;7.10;95.80;;;;;;6276306;22;20004;-74
2021/03/11 03:15:57;;;;;;;33.17;19.45;;;7.10;95.80;;;;;;6276004;22;20050;-74
2021/03/11 03:18:24;;;;;;;32.50;18.95;;;7.00;96.00;;;;;;6276197;22;20000;-74
2021/03/11 03:20:50;;;;;;;36.03;18.23;;;7.00;96.10;;;;;;6248970;22;20011;-74
2021/03/11 03:23:18;;;;;;;33.90;19.48;;;7.00;96.20;;;;;;6276020;22;19996;-74
2021/03/11 03:25:50;;;;;;;41.30;20.92;;;7.00;96.20;;;;;;6275802;22;20008;-73
2021/03/11 03:28:16;;;;;;;;;;;6.90;96.40;;;;;;6276413;22;20014;-74
2021/03/11 03:30:43;;;;;;;36.50;18.13;;;6.80;96.50;;;;;;6276453;22;19899;-75
2021/03/11 03:33:11;;;;;;;33.72;19.92;;;6.70;96.60;;;;;;6276559;22;19996;-74
2021/03/11 03:35:37;;;;;;;35.50;19.20;;;6.70;96.60;;;;;;6249444;22;20066;-74
2021/03/11 03:38:03;;;;;;;36.55;19.15;;;6.70;96.50;;;;;;6275690;22;20031;-74
2021/03/11 03:40:29;;;;;;;32.78;19.20;;;6.70;96.60;;;;;;6275810;22;20004;-74
2021/03/11 03:43:08;;;;;;;37.38;19.77;;;6.60;96.90;;;;;;6276125;22;20050;-74
2021/03/11 03:45:39;;;;;;;33.90;18.67;;;6.50;97.00;;;;;;6276191;22;20039;-75
2021/03/11 03:48:08;;;;;;;33.17;19.25;;;6.50;97.20;;;;;;6276310;22;20007;-74
2021/03/11 03:50:35;;;;;;;32.95;19.17;;;6.50;97.10;;;;;;6276263;22;20026;-74
2021/03/11 03:53:07;;;;;;;38.78;20.17;;;6.50;97.00;;;;;;6275682;22;20000;-74
2021/03/11 03:55:35;;;;;;;;;;;6.50;97.10;;;;;;6276547;22;20044;-75
2021/03/11 03:58:01;;;;;;;31.13;18.40;;;6.50;97.20;;;;;;6276240;22;19905;-75
2021/03/11 04:00:27;;;;;;;30.77;18.38;;;6.50;97.20;;;;;;6276283;22;20004;-74
2021/03/11 04:02:54;;;;;;;33.40;18.42;;;6.50;97.30;;;;;;6276278;22;20077;-74
2021/03/11 04:05:22;;;;;;;34.55;19.15;;;6.60;97.40;;;;;;6275509;22;19999;-74
2021/03/11 04:07:49;;;;;;;36.13;19.92;;;6.60;97.50;;;;;;6276147;22;20076;-74
2021/03/11 04:10:15;;;;;;;34.58;19.30;;;6.60;97.60;;;;;;6275514;22;20337;-74
2021/03/11 04:12:43;;;;;;;36.80;19.63;;;6.60;97.50;;;;;;6276148;22;19999;-74
2021/03/11 04:15:09;;;;;;;38.00;19.80;;;6.60;97.60;;;;;;6275262;22;20078;-74
2021/03/11 04:17:35;;;;;;;32.47;19.33;;;6.60;97.40;;;;;;6275936;22;20007;-75
2021/03/11 04:20:05;;;;;;;34.97;19.40;;;6.70;97.50;;;;;;6275771;22;20039;-74
2021/03/11 04:22:32;;;;;;;39.63;20.33;;;6.60;97.40;;;;;;6248603;22;20035;-74
2021/03/11 04:24:58;;;;;;;33.88;19.65;;;6.60;97.50;;;;;;6275842;22;20443;-75
2021/03/11 04:27:25;;;;;;;37.00;18.85;;;6.50;97.50;;;;;;6275649;22;20097;-74
2021/03/11 04:29:51;;;;;;;33.47;19.27;;;6.50;97.70;;;;;;6274974;22;20004;-74
2021/03/11 04:32:17;;;;;;;34.58;19.38;;;6.40;97.70;;;;;;6275017;22;20302;-74
2021/03/11 04:34:44;;;;;;;36.60;19.33;;;6.30;97.70;;;;;;6274740;22;20007;-74
2021/03/11 04:37:10;;;;;;;36.15;18.67;;;6.30;97.90;;;;;;6273471;22;20001;-74
2021/03/11 04:39:37;;;;;;;38.83;18.42;;;6.30;98.00;;;;;;6274606;22;20310;-74
2021/03/11 04:42:03;;;;;;;28.35;19.05;;;6.30;98.00;;;;;;6275324;22;20075;-75
2021/03/11 04:44:29;;;;;;;39.22;19.60;;;6.40;97.90;;;;;;6274728;22;20028;-74
2021/03/11 04:46:55;;;;;;;42.42;19.10;;;6.40;97.90;;;;;;6273136;22;20000;-74
2021/03/11 04:49:28;;;;;;;32.63;19.05;;;6.50;97.90;;;;;;6274956;22;20432;-74
2021/03/11 04:51:55;;;;;;;35.63;19.48;;;6.50;97.90;;;;;;6275067;22;20042;-75
2021/03/11 04:54:21;;;;;;;33.28;18.95;;;6.60;97.90;;;;;;6275428;22;20015;-75
2021/03/11 04:56:48;;;;;;;34.70;19.40;;;6.60;97.90;;;;;;6275099;22;20015;-74
2021/03/11 04:59:15;;;;;;;29.90;18.08;;;6.60;98.00;;;;;;6273340;22;19999;-75
2021/03/11 05:01:43;;;;;;;33.90;19.95;;;6.70;98.10;;;;;;6274264;22;20306;-74
2021/03/11 05:04:11;;;;;;;40.17;19.45;;;6.70;98.10;;;;;;6275491;22;20004;-74
2021/03/11 05:06:37;;;;;;;33.17;20.38;;;6.80;98.10;;;;;;6275650;22;20034;-74
2021/03/11 05:09:03;;;;;;;29.83;19.10;;;6.80;98.10;;;;;;6275231;22;20000;-74
2021/03/11 05:11:29;;;;;;;39.17;21.02;;;6.80;98.10;;;;;;6275474;22;20060;-75
2021/03/11 05:13:55;;;;;;;32.45;18.65;;;6.90;98.10;;;;;;6275136;22;20417;-74
2021/03/11 05:16:20;;;;;;;39.80;20.15;;;6.90;98.20;;;;;;6248135;22;20016;-75
2021/03/11 05:18:46;;;;;;;32.80;19.33;;;6.90;98.10;;;;;;6275337;22;19995;-74
2021/03/11 05:21:12;;;;;;;32.00;18.90;;;6.90;98.20;;;;;;6275465;22;20083;-74
2021/03/11 05:23:38;;;;;;;43.38;19.20;;;6.90;98.40;;;;;;6275343;22;20074;-74
2021/03/11 05:26:04;;;;;;;35.03;20.65;;;6.90;98.40;;;;;;6275496;22;20034;-74
2021/03/11 05:28:30;;;;;;;36.60;19.52;;;6.90;98.20;;;;;;6275281;22;20035;-74
2021/03/11 05:30:55;;;;;;;39.60;20.02;;;6.90;98.30;;;;;;6275272;22;20110;-74
2021/03/11 05:33:21;;;;;;;34.15;18.75;;;6.90;98.40;;;;;;6275326;22;20000;-74
2021/03/11 05:35:47;;;;;;;33.85;19.75;;;7.00;98.50;;;;;;6275049;22;20035;-74
2021/03/11 05:38:13;;;;;;;36.72;19.88;;;7.00;98.40;;;;;;6275618;22;20071;-74
2021/03/11 05:40:39;;;;;;;34.80;20.45;;;7.00;98.30;;;;;;6276486;22;20079;-74
2021/03/11 05:43:06;;;;;;;41.97;19.65;;;7.10;98.40;;;;;;6277341;22;20053;-74
2021/03/11 05:45:32;;;;;;;43.25;20.30;;;7.10;98.40;;;;;;6277322;22;20012;-74
2021/03/11 05:47:59;;;;;;;36.03;19.15;;;7.10;98.40;;;;;;6277640;22;20071;-74
2021/03/11 05:50:25;;;;;;;42.10;21.13;;;7.20;98.40;;;;;;6277114;22;20507;-75
2021/03/11 05:52:52;;;;;;;34.95;20.20;;;7.20;98.60;;;;;;6277743;22;20011;-74
2021/03/11 05:55:19;;;;;;;32.70;18.70;;;7.30;98.50;;;;;;6277674;22;20039;-74
2021/03/11 05:57:45;;;;;;;36.58;19.88;;;7.30;98.50;;;;;;6280155;22;20003;-75
2021/03/11 06:00:16;;;;;;;57.38;20.50;;;7.40;98.70;;;;;;6282531;22;20361;-75
2021/03/11 06:02:47;;;;;;;42.30;18.63;;;7.40;98.80;;;;;;6277818;22;20130;-75
2021/03/11 06:05:15;;;;;;;34.70;19.20;;;7.40;98.70;;;;;;6277916;22;20083;-75
2021/03/11 06:07:45;;;;;;;38.83;20.17;;;7.40;98.90;;;;;;6281443;22;20459;-75
2021/03/11 06:10:12;;;;;;;45.47;21.75;;;7.50;98.90;;;;;;6277776;22;20418;-75
2021/03/11 06:12:39;;;;;;;38.42;19.75;;;7.60;98.70;;;;;;6277364;22;20003;-75
2021/03/11 06:15:16;;;;;;;38.85;19.83;;;7.60;98.50;;;;;;6250199;22;20015;-75
2021/03/11 06:17:43;;;;;;;42.53;21.42;;;7.70;98.50;;;;;;6277507;22;20122;-75
2021/03/11 06:20:09;;;;;;;46.92;20.88;;;7.80;98.40;;;;;;6277466;22;20011;-75
2021/03/11 06:22:36;;;;;;;49.55;22.23;;;8.00;98.20;;;;;;6249977;22;20000;-75
2021/03/11 06:25:02;;;;;;;50.28;20.95;;;8.10;98.00;;;;;;6277455;22;20011;-75
2021/03/11 06:27:28;;;;;;;51.00;20.10;;;8.20;97.90;;;;;;6277189;22;20000;-75
2021/03/11 06:29:56;;;;;;;38.67;20.90;;;8.40;98.00;;;;;;6276394;22;20003;-76
2021/03/11 06:32:22;;;;;;;36.30;19.08;;;8.60;97.80;;;;;;6276102;22;20302;-76
2021/03/11 06:34:48;;;;;;;44.92;21.58;;;8.90;97.50;;;;;;6276839;22;20087;-76
2021/03/11 06:37:15;;;;;;;38.30;20.83;;;9.20;97.20;;;;;;6277136;22;20019;-75
2021/03/11 06:39:42;;;;;;;42.80;20.17;;;9.40;96.80;;;;;;6276344;22;20004;-76
2021/03/11 06:42:09;;;;;;;43.00;20.13;;;9.70;96.20;;;;;;6277685;22;20027;-76
2021/03/11 06:44:39;;;;;;;41.83;19.40;;;9.90;96.50;;;;;;6277732;22;20026;-75
2021/03/11 06:47:08;;;;;;;40.95;20.92;;;10.10;95.90;;;;;;6276957;22;19996;-76
2021/03/11 06:49:34;;;;;;;40.33;20.20;;;10.20;96.10;;;;;;6276264;22;20107;-75
2021/03/11 06:52:15;;;;;;;39.00;21.27;;;10.30;95.60;;;;;;6274999;22;20353;-75
2021/03/11 06:55:03;;;;;;;41.65;22.00;;;10.50;95.70;;;;;;6273243;22;20018;-75
2021/03/11 06:57:30;;;;;;;46.60;21.63;;;10.60;95.60;;;;;;6274731;22;20054;-75
2021/03/11 06:59:58;;;;;;;58.97;22.63;;;10.70;95.40;;;;;;6275477;22;20007;-75
2021/03/11 07:02:25;;;;;;;47.95;21.52;;;10.80;95.30;;;;;;6275844;22;20003;-75
2021/03/11 07:04:53;;;;;;;48.47;21.27;;;10.80;95.10;;;;;;6275875;22;20004;-75
2021/03/11 07:07:20;;;;;;;46.90;20.83;;;10.70;95.20;;;;;;6275869;22;20007;-74
2021/03/11 07:09:47;;;;;;;43.97;20.15;;;10.70;95.10;;;;;;6275925;22;20000;-75
2021/03/11 07:12:13;;;;;;;48.53;21.90;;;10.70;94.80;;;;;;6276291;22;20368;-74
2021/03/11 07:14:39;;;;;;;39.15;18.38;;;10.70;94.90;;;;;;6275713;22;20062;-74
2021/03/11 07:17:22;;;;;;;42.25;20.20;;;10.70;94.20;;;;;;6275054;22;20004;-75
2021/03/11 07:20:07;;;;;;;48.75;19.65;;;10.80;94.30;;;;;;6275822;22;20088;-74
2021/03/11 07:22:34;;;;;;;43.88;20.17;;;10.80;94.10;;;;;;6275877;22;20487;-74
2021/03/11 07:25:00;;;;;;;36.55;19.45;;;10.80;94.10;;;;;;6275738;22;20329;-74
2021/03/11 07:27:38;;;;;;;36.25;18.25;;;10.80;94.30;;;;;;6276101;22;19996;-73
2021/03/11 07:30:06;;;;;;;33.33;18.98;;;10.90;93.70;;;;;;6249170;22;20015;-74
2021/03/11 07:32:34;;;;;;;42.10;19.92;;;10.90;93.60;;;;;;6249002;22;20337;-73
2021/03/11 07:35:04;;;;;;;38.00;17.85;;;11.00;93.70;;;;;;6275369;22;20448;-73
2021/03/11 07:37:31;;;;;;;34.20;19.38;;;11.00;93.60;;;;;;6275677;22;19996;-75
2021/03/11 07:39:59;;;;;;;39.42;19.95;;;11.10;93.50;;;;;;6275413;22;20008;-74
2021/03/11 07:42:26;;;;;;;40.83;20.10;;;11.20;93.50;;;;;;6275531;22;19996;-74
2021/03/11 07:44:52;;;;;;;37.60;21.33;;;11.30;93.40;;;;;;6275616;22;20398;-75
2021/03/11 07:47:18;;;;;;;38.35;20.67;;;11.30;93.40;;;;;;6274535;22;20091;-73
2021/03/11 07:49:46;;;;;;;54.90;32.15;;;11.50;93.10;;;;;;6247832;22;20440;-73
2021/03/11 07:52:11;;;;;;;32.90;18.80;;;11.90;92.80;;;;;;6273607;22;19996;-73
2021/03/11 07:54:38;;;;;;;35.63;18.55;;;12.30;92.30;;;;;;6275276;22;20053;-74
2021/03/11 07:57:04;;;;;;;33.72;17.58;;;12.40;92.00;;;;;;6275052;22;20004;-75
2021/03/11 07:59:30;;;;;;;34.95;20.10;;;12.60;91.60;;;;;;6274882;22;19996;-75
2021/03/11 08:02:05;;;;;;;34.17;19.67;;;12.80;91.80;;;;;;6274741;22;20015;-75
2021/03/11 08:04:34;;;;;;;32.15;17.75;;;13.00;91.50;;;;;;6272454;22;20000;-74
2021/03/11 08:07:15;;;;;;;32.67;19.02;;;12.90;91.80;;;;;;6273525;22;20083;-74
2021/03/11 08:09:42;;;;;;;31.45;17.77;;;13.00;91.40;;;;;;6247207;22;20046;-74
2021/03/11 08:12:30;;;;;;;40.13;21.40;;;13.00;91.50;;;;;;6270361;22;19995;-74
2021/03/11 08:15:01;;;;;;;50.00;25.58;;;12.80;91.40;;;;;;6273681;22;20012;-74
2021/03/11 08:17:38;;;;;;;34.67;17.65;;;12.80;91.80;;;;;;6270126;22;20007;-74
2021/03/11 08:20:25;;;;;;;50.90;26.58;;;12.70;91.80;;;;;;6274647;22;20007;-73
2021/03/11 08:22:55;;;;;;;41.67;22.88;;;12.60;92.10;;;;;;6221598;22;20318;-72
2021/03/11 08:25:33;;;;;;;39.78;22.25;;;12.60;91.90;;;;;;6247913;22;20003;-73
2021/03/11 08:28:00;;;;;;;36.63;18.13;;;12.50;92.40;;;;;;6274582;22;20008;-73
2021/03/11 08:30:40;;;;;;;35.40;18.40;;;12.40;92.60;;;;;;6274765;22;19996;-73
2021/03/11 08:33:14;;;;;;;38.38;17.75;;;12.60;92.70;;;;;;6274715;22;20077;-74
2021/03/11 08:35:47;;;;;;;28.48;15.98;;;12.80;92.40;;;;;;6274464;22;20038;-74
2021/03/11 08:38:19;;;;;;;36.80;17.92;;;13.10;92.10;;;;;;6273890;22;20026;-75
2021/03/11 08:41:06;;;;;;;34.28;18.00;;;13.40;91.70;;;;;;6273700;22;20007;-73
2021/03/11 08:43:35;;;;;;;33.15;17.08;;;13.60;92.00;;;;;;6274099;22;20011;-72
2021/03/11 08:46:21;;;;;;;35.70;16.52;;;14.00;91.50;;;;;;6274409;22;20329;-72
2021/03/11 08:48:58;;;;;;;31.10;17.70;;;14.60;91.10;;;;;;6274222;22;20008;-72
2021/03/11 08:51:24;;;;;;;32.47;16.85;;;14.90;90.70;;;;;;6273903;22;19996;-72
2021/03/11 08:53:50;;;;;;;29.70;15.88;;;14.90;90.70;;;;;;6247415;22;20011;-73
2021/03/11 08:56:16;;;;;;;27.70;16.38;;;15.00;90.80;;;;;;6247079;22;20090;-74
2021/03/11 08:59:04;;;;;;;34.60;16.77;;;15.20;90.60;;;;;;6273810;22;20031;-73
2021/03/11 09:01:45;;;;;;;28.00;14.65;;;15.40;90.80;;;;;;6274628;22;20008;-73
2021/03/11 09:04:20;;;;;;;26.55;14.82;;;15.50;91.10;;;;;;6274023;22;20464;-73
2021/03/11 09:07:28;;;;;;;25.88;14.23;;;15.60;91.30;;;;;;6274041;22;20000;-73
2021/03/11 09:09:54;;;;;;;24.08;15.05;;;15.90;91.10;;;;;;6200433;22;20019;-72
2021/03/11 09:12:21;;;;;;;28.95;15.05;;;15.70;91.30;;;;;;6274339;22;20635;-75
2021/03/11 09:14:49;;;;;;;25.15;14.93;;;15.70;91.50;;;;;;6274194;22;20341;-73
2021/03/11 09:17:17;;;;;;;30.48;14.88;;;16.10;91.10;;;;;;6273405;22;20057;-73
2021/03/11 09:19:44;;;;;;;34.97;15.52;;;16.40;90.70;;;;;;6273718;22;20003;-74
2021/03/11 09:22:20;;;;;;;28.75;15.05;;;16.50;90.50;;;;;;6274054;22;20078;-74
2021/03/11 09:25:09;;;;;;;31.33;15.15;;;16.70;90.40;;;;;;6274279;22;20012;-75
2021/03/11 09:27:41;;;;;;;28.73;16.08;;;16.80;90.20;;;;;;6273996;22;20090;-73
2021/03/11 09:30:11;;;;;;;29.85;15.60;;;16.90;90.10;;;;;;6273947;22;20014;-74
2021/03/11 09:32:39;;;;;;;24.65;14.88;;;17.00;90.10;;;;;;6274560;22;20104;-73
2021/03/11 09:35:08;;;;;;;25.63;14.75;;;17.20;89.60;;;;;;6247241;22;20022;-73
2021/03/11 09:37:56;;;;;;;25.85;13.95;;;17.40;89.10;;;;;;6274427;22;20070;-73
2021/03/11 09:40:23;;;;;;;28.00;15.60;;;17.50;89.20;;;;;;6274712;22;20053;-73
2021/03/11 09:43:03;;;;;;;24.73;14.10;;;17.80;88.40;;;;;;6274483;22;20000;-73
2021/03/11 09:45:48;;;;;;;34.40;15.43;;;17.90;87.60;;;;;;6274298;22;20047;-73
2021/03/11 09:48:25;;;;;;;31.95;16.23;;;18.00;87.70;;;;;;6273604;22;20053;-73
2021/03/11 09:51:04;;;;;;;27.77;15.00;;;18.20;88.00;;;;;;6274480;22;20003;-73
2021/03/11 09:53:34;;;;;;;29.25;15.10;;;18.30;87.10;;;;;;6273804;22;20053;-74
2021/03/11 09:56:00;;;;;;;27.08;13.95;;;18.20;87.40;;;;;;6273939;22;20085;-73
2021/03/11 09:58:27;;;;;;;23.15;14.55;;;18.30;86.70;;;;;;6274428;22;20007;-74
2021/03/11 10:00:53;;;;;;;31.65;15.43;;;18.10;86.70;;;;;;6274584;22;20089;-74
2021/03/11 10:03:23;;;;;;;24.17;14.30;;;18.00;87.10;;;;;;6274379;22;20000;-74
2021/03/11 10:05:55;;;;;;;31.77;15.27;;;17.90;87.60;;;;;;6274135;22;20065;-76
2021/03/11 10:08:36;;;;;;;27.48;15.55;;;18.00;87.60;;;;;;6274366;22;20004;-74
2021/03/11 10:11:14;;;;;;;23.52;15.77;;;18.00;87.20;;;;;;6274523;22;20074;-73
2021/03/11 10:13:50;;;;;;;28.92;14.23;;;18.00;87.40;;;;;;6274788;22;20309;-74
2021/03/11 10:16:32;;;;;;;25.40;14.55;;;18.10;87.50;;;;;;6274279;22;20007;-73
2021/03/11 10:19:03;;;;;;;25.95;14.25;;;18.10;87.30;;;;;;6247251;22;20003;-74
2021/03/11 10:21:30;;;;;;;23.42;14.95;;;18.10;87.40;;;;;;6274852;22;20011;-74
2021/03/11 10:23:57;;;;;;;28.48;15.18;;;17.90;88.10;;;;;;6274163;22;20034;-74
2021/03/11 10:26:26;;;;;;;28.52;15.95;;;17.90;87.90;;;;;;6275652;22;20031;-74
2021/03/11 10:29:00;;;;;;;26.77;15.68;;;17.70;88.00;;;;;;6276983;22;20012;-74
2021/03/11 10:31:26;;;;;;;28.70;14.90;;;17.60;87.80;;;;;;6276319;22;20460;-74
2021/03/11 10:34:12;;;;;;;26.55;15.77;;;17.50;88.40;;;;;;6276319;22;20035;-74
2021/03/11 10:36:38;;;;;;;31.90;15.48;;;17.50;89.10;;;;;;6275397;22;20019;-74
2021/03/11 10:39:14;;;;;;;29.67;14.15;;;17.50;88.90;;;;;;6276060;22;20334;-74
2021/03/11 10:42:05;;;;;;;27.67;14.32;;;17.60;89.50;;;;;;6276016;22;20023;-74
2021/03/11 10:44:35;;;;;;;37.28;16.10;;;17.70;89.20;;;;;;6276081;22;20464;-73
2021/03/11 10:47:17;;;;;;;24.42;14.45;;;17.60;89.40;;;;;;6275869;22;20079;-74
2021/03/11 10:49:44;;;;;;;27.75;14.25;;;17.50;89.70;;;;;;6276043;22;19999;-74
2021/03/11 10:52:12;;;;;;;25.48;14.13;;;17.30;90.10;;;;;;6275795;22;20006;-74
2021/03/11 10:54:39;;;;;;;25.88;15.20;;;17.30;90.50;;;;;;6248335;22;20441;-74
2021/03/11 10:57:09;;;;;;;29.73;15.23;;;17.10;90.50;;;;;;6275774;22;20367;-74
2021/03/11 11:00:03;;;;;;;25.45;15.30;;;17.00;90.80;;;;;;6275624;22;20003;-74
2021/03/11 11:02:30;;;;;;;28.45;15.63;;;17.00;90.90;;;;;;6275499;22;20098;-74
2021/03/11 11:04:58;;;;;;;24.85;15.20;;;16.90;91.10;;;;;;6275774;22;20081;-74
2021/03/11 11:07:25;;;;;;;27.02;15.65;;;16.80;91.00;;;;;;6274919;22;20298;-73
2021/03/11 11:09:52;;;;;;;29.67;15.52;;;16.80;91.20;;;;;;6273217;22;20440;-74
2021/03/11 11:12:19;;;;;;;32.42;16.58;;;16.70;91.20;;;;;;6275546;22;20102;-73
2021/03/11 11:14:47;;;;;;;24.65;15.63;;;16.60;91.60;;;;;;6273379;22;20111;-73
2021/03/11 11:17:13;;;;;;;28.30;14.38;;;16.40;91.60;;;;;;6274440;22;19999;-73
2021/03/11 11:19:40;;;;;;;23.83;14.88;;;16.20;92.00;;;;;;6274618;22;20018;-73
2021/03/11 11:22:08;;;;;;;29.08;15.52;;;16.20;92.10;;;;;;6274502;22;20000;-73
2021/03/11 11:24:35;;;;;;;26.48;15.55;;;16.20;92.00;;;;;;6274911;22;20006;-74
2021/03/11 11:27:00;;;;;;;24.52;15.27;;;16.20;92.10;;;;;;6275206;22;20425;-73
2021/03/11 11:29:27;;;;;;;25.25;14.73;;;16.10;92.20;;;;;;6275287;22;20003;-74
2021/03/11 11:31:53;;;;;;;28.20;15.55;;;16.10;92.50;;;;;;6248120;22;20118;-74
2021/03/11 11:34:19;;;;;;;24.60;14.57;;;16.00;92.60;;;;;;6275499;22;20055;-73
2021/03/11 11:36:46;;;;;;;25.90;15.30;;;16.00;92.90;;;;;;6275112;22;20006;-74
2021/03/11 11:39:13;;;;;;;27.45;17.23;;;16.00;93.00;;;;;;6274757;22;20290;-74
2021/03/11 11:41:39;;;;;;;24.10;15.07;;;15.90;93.30;;;;;;6274650;22;20008;-74
2021/03/11 11:44:07;;;;;;;26.30;14.75;;;15.80;93.50;;;;;;6275627;22;20012;-74
2021/03/11 11:46:33;;;;;;;24.20;14.63;;;15.80;93.50;;;;;;6274928;22;20404;-74
2021/03/11 11:48:59;;;;;;;30.25;15.38;;;15.80;93.70;;;;;;6275271;22;20003;-74
2021/03/11 11:51:25;;;;;;;26.10;15.10;;;15.80;93.90;;;;;;6274001;22;20031;-74
2021/03/11 11:53:51;;;;;;;28.63;15.43;;;15.80;94.10;;;;;;6274456;22;20000;-74
2021/03/11 11:56:18;;;;;;;35.33;15.18;;;15.80;94.10;;;;;;6274938;22;20015;-74
2021/03/11 11:58:45;;;;;;;24.63;14.18;;;15.80;94.20;;;;;;6275045;22;20007;-74
2021/03/11 12:01:14;;;;;;;25.45;13.45;;;16.00;94.00;;;;;;6274741;22;20003;-74
2021/03/11 12:03:40;;;;;;;24.58;14.13;;;16.10;93.80;;;;;;6247377;22;20382;-74
2021/03/11 12:06:06;;;;;;;26.92;15.07;;;16.20;94.10;;;;;;6275391;22;20652;-74
2021/03/11 12:08:32;;;;;;;26.15;14.00;;;16.30;93.90;;;;;;6273944;22;19999;-74
2021/03/11 12:10:57;;;;;;;22.77;13.85;;;16.30;93.90;;;;;;6274822;22;20001;-75
2021/03/11 12:13:24;;;;;;;21.02;12.68;;;16.30;94.00;;;;;;6275282;22;20000;-75
2021/03/11 12:15:50;;;;;;;32.80;14.40;;;16.20;94.10;;;;;;6273348;22;20011;-74
2021/03/11 12:18:16;;;;;;;23.15;13.40;;;16.10;94.10;;;;;;6274349;22;20000;-74
2021/03/11 12:20:41;;;;;;;27.50;13.85;;;16.00;94.30;;;;;;6247029;22;20298;-74
2021/03/11 12:23:07;;;;;;;25.95;14.20;;;15.70;94.70;;;;;;6274108;22;20004;-74
2021/03/11 12:25:34;;;;;;;21.65;13.38;;;15.50;94.70;;;;;;6273959;22;20342;-74
2021/03/11 12:28:00;;;;;;;27.80;13.00;;;15.40;94.80;;;;;;6274012;22;20076;-75
2021/03/11 12:30:26;;;;;;;20.98;13.15;;;15.30;95.20;;;;;;6246768;22;20004;-74
2021/03/11 12:32:52;;;;;;;24.58;14.82;;;15.20;95.30;;;;;;6274272;22;20008;-74
2021/03/11 12:35:18;;;;;;;27.85;14.85;;;15.10;95.50;;;;;;6273663;22;20497;-74
2021/03/11 12:37:44;;;;;;;26.75;14.25;;;15.00;96.10;;;;;;6273957;22;20037;-74
2021/03/11 12:40:11;;;;;;;27.27;13.57;;;14.90;96.20;;;;;;6274065;22;20007;-74
2021/03/11 12:42:37;;;;;;;28.27;13.25;;;14.90;96.40;;;;;;6272293;22;20102;-75